Latest Weather Observations for Gladstone

IDQ60801

Issued at 3:02 pm EST Saturday 31 January 2015 (issued every 30 minutes, with the page automatically refreshed every 10 minutes)

About weather observations | Map of weather stations | Latest weather observations for QLD | Other Formats
Station Details ID: 039123 Name: GLADSTONE RADAR Lat: -23.86 Lon: 151.26 Height: 74.5 m
Data from the previous 72 hours. | See also: Recent months at Gladstone
Date/Time
EST
Temp
°C
App
Temp
°C
Dew
Point
Rel
Hum
%
Delta-T
°C
Wind Press
QNH
hPa
Press
MSL
hPa
Rain
since 9 am
mm
Dir
 
Spd
km/h
Gust
km/h
Spd
kts
Gust
kts
31/03:00pm 30.1 31.8 22.3 63 5.3 NE 17 26 9 14 1005.5 1005.0 0.0
31/02:30pm 30.4 32.3 22.8 64 5.2 NE 17 28 9 15 1005.9 1005.4 0.0
31/02:00pm 30.6 31.8 22.2 61 5.7 NE 19 28 10 15 1006.2 1005.7 0.0
31/01:30pm 31.2 33.1 22.8 61 5.8 NE 17 24 9 13 1006.7 1006.2 0.0
31/01:00pm 31.5 33.3 22.5 59 6.2 NE 17 24 9 13 1007.0 1006.5 0.0
31/12:30pm 31.3 33.7 22.9 61 5.8 NE 15 20 8 11 1007.3 1006.8 0.0
31/12:00pm 31.5 33.6 22.5 59 6.2 ENE 15 20 8 11 1007.6 1007.1 0.0
31/11:30am 31.6 34.6 22.6 59 6.2 NE 11 20 6 11 1008.0 1007.5 0.0
31/11:00am 30.1 33.4 22.5 63 5.2 ENE 9 17 5 9 1008.2 1007.7 0.0
31/10:30am 30.1 32.9 20.9 57 6.1 ENE 7 13 4 7 1008.5 1008.0 0.0
31/10:00am 30.6 32.6 20.8 56 6.6 NE 11 15 6 8 1008.6 1008.1 0.0
31/09:30am 29.9 33.1 21.6 61 5.6 NE 7 13 4 7 1008.9 1008.4 0.0
31/09:00am 29.7 32.5 20.8 58 5.9 NE 7 13 4 7 1009.2 1008.7 0.0
31/08:30am 28.5 31.3 20.5 62 5.3 NE 6 9 3 5 1009.2 1008.7 0.0
31/08:00am 26.9 31.0 21.6 72 3.5 NNW 2 7 1 4 1009.1 1008.6 0.0
31/07:30am 26.7 29.9 21.2 72 3.7 E 6 7 3 4 1009.0 1008.5 0.0
31/07:00am 25.3 28.3 20.8 76 3.0 SE 6 11 3 6 1008.7 1008.2 0.0
31/06:30am 23.5 26.1 20.4 83 2.0 S 7 11 4 6 1008.6 1008.1 0.0
31/06:00am 23.1 24.8 20.2 84 1.9 SSW 11 15 6 8 1008.3 1007.8 0.0
31/05:30am 22.7 24.3 20.0 85 1.7 SSW 11 15 6 8 1007.9 1007.4 0.0
31/05:00am 22.6 24.2 19.9 85 1.7 SSW 11 15 6 8 1007.7 1007.2 0.0
31/04:30am 23.0 24.5 19.8 82 2.1 SSW 11 13 6 7 1007.5 1007.0 0.0
31/04:00am 23.1 24.7 19.9 82 2.1 S 11 15 6 8 1007.4 1006.9 0.0
31/03:30am 23.0 24.5 19.8 82 2.1 SSW 11 13 6 7 1007.3 1006.8 0.0
31/03:00am 23.4 25.4 20.0 81 2.2 S 9 11 5 6 1007.3 1006.8 0.0
31/02:30am 23.6 25.6 19.9 80 2.4 SSE 9 13 5 7 1007.1 1006.6 0.0
31/02:00am 23.5 24.9 19.6 79 2.5 SE 11 13 6 7 1007.2 1006.7 0.0
31/01:30am 23.5 24.9 19.6 79 2.5 SE 11 13 6 7 1007.4 1006.9 0.0
31/01:00am 23.7 25.5 19.6 78 2.6 SE 9 13 5 7 1007.7 1007.2 0.0
31/12:30am 24.2 26.2 19.9 77 2.8 SSE 9 13 5 7 1008.3 1007.8 0.0
31/12:00am 24.5 26.6 20.2 77 2.8 ENE 9 15 5 8 1008.6 1008.1 0.0
 
Date/Time
EST
Temp
°C
App
Temp
°C
Dew
Point
Rel
Hum
%
Delta-T
°C
Wind Press
QNH
hPa
Press
MSL
hPa
Rain
since 9 am
mm
Dir
 
Spd
km/h
Gust
km/h
Spd
kts
Gust
kts
30/11:30pm 24.6 26.7 20.1 76 2.9 ENE 9 13 5 7 1009.0 1008.5 0.0
30/11:00pm 24.8 26.2 20.3 76 2.9 ENE 13 19 7 10 1009.1 1008.6 0.0
30/10:30pm 24.7 25.8 20.4 77 2.8 ENE 15 20 8 11 1008.9 1008.4 0.0
30/10:00pm 24.8 26.3 20.5 77 2.8 ENE 13 19 7 10 1008.9 1008.4 0.0
30/09:30pm 24.7 26.4 20.2 76 2.9 ENE 11 17 6 9 1008.8 1008.3 0.0
30/09:00pm 24.9 25.7 19.9 74 3.2 ENE 15 20 8 11 1008.5 1008.0 0.0
30/08:30pm 24.9 26.1 19.9 74 3.2 ENE 13 19 7 10 1008.4 1007.9 0.0
30/08:00pm 25.1 25.5 19.9 73 3.4 ENE 17 22 9 12 1008.1 1007.6 0.0
30/07:30pm 25.1 25.9 19.9 73 3.4 ENE 15 20 8 11 1008.0 1007.5 0.0
30/07:00pm 25.3 26.1 19.9 72 3.5 ENE 15 19 8 10 1007.7 1007.2 0.0
30/06:30pm 25.8 26.3 20.1 71 3.7 ENE 17 24 9 13 1007.3 1006.8 0.0
30/06:00pm 26.2 26.5 19.6 67 4.3 ENE 17 24 9 13 1006.9 1006.4 0.0
30/05:30pm 27.0 26.9 19.9 65 4.6 ENE 20 30 11 16 1006.7 1006.2 0.0
30/05:00pm 28.0 27.8 19.8 61 5.4 ENE 20 30 11 16 1006.4 1005.9 0.0
30/04:30pm 28.5 28.8 20.5 62 5.3 ENE 19 26 10 14 1006.4 1005.9 0.0
30/04:00pm 29.4 30.0 21.1 61 5.6 ENE 19 28 10 15 1006.4 1005.9 0.0
30/03:30pm 27.5 27.6 20.3 65 4.7 ENE 20 28 11 15 1006.6 1006.1 0.0
30/03:00pm 28.1 28.3 20.1 62 5.3 ENE 19 28 10 15 1006.9 1006.4 0.0
30/02:30pm 28.7 27.8 19.9 59 5.8 ENE 24 35 13 19 1006.9 1006.4 0.0
30/02:00pm 29.6 29.6 21.0 60 5.8 ENE 22 32 12 17 1007.2 1006.7 0.0
30/01:30pm 29.9 28.8 20.2 56 6.4 ENE 26 35 14 19 1007.5 1007.0 0.0
30/01:00pm 30.2 29.7 20.7 56 6.3 ENE 24 33 13 18 1007.7 1007.2 0.0
30/12:30pm 29.7 29.8 21.1 60 5.8 ENE 22 35 12 19 1008.1 1007.6 0.0
30/12:00pm 30.2 30.6 21.0 58 6.2 ENE 20 32 11 17 1008.5 1008.0 0.0
30/11:30am 29.7 30.0 21.6 61 5.5 ENE 22 30 12 16 1008.9 1008.4 0.0
30/11:00am 30.0 30.7 22.2 63 5.3 E 22 35 12 19 1009.1 1008.6 0.0
30/10:30am 28.7 28.1 20.4 60 5.5 E 24 33 13 18 1009.0 1008.5 0.0
30/10:00am 27.7 27.1 19.8 62 5.2 ESE 22 35 12 19 1009.1 1008.6 0.0
30/09:30am 27.3 27.1 19.4 62 5.1 ESE 19 33 10 18 1009.2 1008.7 0.0
30/09:00am 27.2 27.0 19.8 64 4.8 SE 20 28 11 15 1009.1 1008.6 6.4
30/08:30am 27.1 27.4 20.4 66 4.4 ESE 19 30 10 16 1009.2 1008.7 6.4
30/08:00am 26.3 27.4 20.4 70 3.9 SE 15 24 8 13 1009.0 1008.5 6.4
30/07:30am 25.1 25.2 19.9 73 3.4 SE 19 28 10 15 1008.9 1008.4 6.4
30/07:00am 24.5 25.1 20.2 77 2.8 SSE 17 24 9 13 1008.6 1008.1 6.4
30/06:30am 23.4 24.4 20.3 83 2.0 SSE 15 24 8 13 1008.2 1007.7 6.4
30/06:00am 22.6 23.9 20.1 86 1.6 S 13 24 7 13 1007.9 1007.4 6.4
30/05:30am 22.3 23.2 20.0 87 1.5 S 15 20 8 11 1007.6 1007.1 6.4
30/05:00am 22.3 23.3 20.2 88 1.4 S 15 22 8 12 1007.2 1006.7 6.4
30/04:30am 22.3 23.6 20.2 88 1.4 S 13 20 7 11 1007.2 1006.7 6.4
30/04:00am 22.3 23.7 20.4 89 1.2 S 13 20 7 11 1007.1 1006.6 6.4
30/03:30am 22.2 23.3 20.5 90 1.1 S 15 20 8 11 1007.3 1006.8 6.4
30/03:00am 22.5 23.3 20.6 89 1.2 SE 17 22 9 12 1007.3 1006.8 6.4
30/02:30am 22.3 23.1 20.6 90 1.1 SE 17 26 9 14 1007.6 1007.1 6.4
30/02:00am 22.6 23.8 20.7 89 1.2 SSE 15 24 8 13 1007.6 1007.1 6.4
30/01:30am 22.8 24.0 20.7 88 1.4 SSE 15 22 8 12 1007.8 1007.3 6.4
30/01:00am 23.0 24.2 20.7 87 1.5 SSE 15 24 8 13 1008.1 1007.6 6.4
30/12:30am 23.0 24.3 20.9 88 1.4 SSE 15 22 8 12 1008.2 1007.7 6.4
30/12:00am 23.3 23.9 21.0 87 1.5 SSE 19 26 10 14 1008.4 1007.9 6.4
 
Date/Time
EST
Temp
°C
App
Temp
°C
Dew
Point
Rel
Hum
%
Delta-T
°C
Wind Press
QNH
hPa
Press
MSL
hPa
Rain
since 9 am
mm
Dir
 
Spd
km/h
Gust
km/h
Spd
kts
Gust
kts
29/11:30pm 23.4 24.0 21.1 87 1.5 SSE 19 30 10 16 1008.5 1008.0 6.4
29/11:00pm 23.6 24.4 21.3 87 1.5 SE 19 26 10 14 1008.9 1008.4 6.4
29/10:30pm 23.7 24.9 21.4 87 1.5 SE 17 24 9 13 1009.0 1008.5 6.4
29/10:00pm 23.9 25.1 21.4 86 1.7 SE 17 22 9 12 1008.9 1008.4 6.4
29/09:30pm 24.2 25.1 21.5 85 1.8 SE 19 28 10 15 1008.6 1008.1 6.4
29/09:00pm 24.3 25.7 21.8 86 1.7 SE 17 28 9 15 1008.4 1007.9 6.4
29/08:30pm 24.2 25.2 21.7 86 1.7 SE 19 24 10 13 1008.2 1007.7 6.4
29/08:00pm 24.3 25.5 21.4 84 1.9 SE 17 24 9 13 1008.0 1007.5 6.2
29/07:30pm 24.3 25.5 21.4 84 1.9 SE 17 26 9 14 1008.0 1007.5 6.2
29/07:00pm 24.2 25.1 21.5 85 1.8 SE 19 22 10 12 1007.6 1007.1 6.2
29/06:30pm 24.2 25.8 21.5 85 1.8 SE 15 20 8 11 1007.1 1006.6 6.2
29/06:00pm 24.2 24.8 21.1 83 2.0 SE 19 33 10 18 1006.8 1006.3 6.2
29/05:30pm 25.1 25.8 21.2 79 2.6 ESE 19 33 10 18 1006.4 1005.9 6.2
29/05:00pm 25.8 24.8 20.4 72 3.5 ESE 26 35 14 19 1006.0 1005.5 6.2
29/04:30pm 25.8 27.4 21.5 77 2.9 SE 15 20 8 11 1005.9 1005.4 6.2
29/04:00pm 26.1 28.1 21.5 76 3.1 SE 13 19 7 10 1005.8 1005.3 6.2
29/03:30pm 27.3 28.4 22.3 74 3.4 ESE 20 30 11 16 1005.8 1005.3 6.2
29/03:00pm 26.3 29.1 23.6 85 1.9 ESE 15 24 8 13 1005.7 1005.2 6.2
29/02:30pm 25.2 27.3 23.1 88 1.4 ESE 17 22 9 12 1005.9 1005.4 6.2
29/02:00pm 24.9 27.9 23.3 91 1.1 E 13 17 7 9 1006.0 1005.5 5.0
29/01:30pm 27.2 28.1 20.8 68 4.2 E 17 28 9 15 1006.2 1005.7 0.0
29/01:00pm 27.8 29.3 21.3 67 4.3 ESE 15 22 8 12 1006.3 1005.8 0.0
29/12:30pm 27.4 28.4 20.2 65 4.7 ESE 15 24 8 13 1006.6 1006.1 0.0
29/12:00pm 28.0 29.2 20.6 64 4.9 ESE 15 26 8 14 1006.8 1006.3 0.0
29/11:30am 28.0 29.0 21.1 66 4.6 SE 17 24 9 13 1006.9 1006.4 0.0
29/11:00am 26.9 26.7 19.8 65 4.6 SE 20 32 11 17 1007.1 1006.6 0.0
29/10:30am 26.7 28.3 21.5 73 3.5 SE 15 28 8 15 1007.3 1006.8 0.0
29/10:00am 25.1 25.1 20.1 74 3.3 SE 20 32 11 17 1007.4 1006.9 0.0
29/09:30am 24.9 24.9 20.2 75 3.1 SSE 20 32 11 17 1007.4 1006.9 0.0
29/09:00am 24.2 24.0 19.7 76 2.9 SSE 20 35 11 19 1007.3 1006.8 3.4
29/08:30am 24.2 24.9 19.7 76 2.9 SSE 15 26 8 14 1007.3 1006.8 3.4
29/08:00am 24.3 25.5 19.8 76 2.9 SSE 13 26 7 14 1007.2 1006.7 3.4
29/07:30am 23.5 23.7 19.4 78 2.6 SSE 17 28 9 15 1006.8 1006.3 3.4
29/07:00am 22.7 22.5 19.3 81 2.2 SSE 19 28 10 15 1006.8 1006.3 3.4
29/06:30am 22.6 22.2 19.0 80 2.3 SSE 19 33 10 18 1006.6 1006.1 3.4
29/06:00am 22.3 22.5 19.3 83 1.9 SSE 17 26 9 14 1006.1 1005.6 3.4
29/05:30am 22.0 22.3 19.7 87 1.5 SSE 17 28 9 15 1005.6 1005.1 3.4
29/05:00am 22.4 22.3 19.6 84 1.8 SSE 19 35 10 19 1005.1 1004.7 3.4
29/04:30am 22.3 22.3 19.7 85 1.7 SSE 19 28 10 15 1004.8 1004.4 3.4
29/04:00am 22.4 22.2 19.8 85 1.7 SSE 20 30 11 16 1004.8 1004.4 3.4
29/03:30am 22.4 22.8 19.9 86 1.6 SSE 17 28 9 15 1004.9 1004.5 3.4
29/03:00am 22.1 23.1 20.2 89 1.2 SSE 15 30 8 16 1005.0 1004.6 3.4
29/02:30am 21.8 22.5 20.4 92 0.9 SE 17 26 9 14 1004.7 1004.3 3.4
29/02:00am 21.5 21.6 20.3 93 0.8 SE 20 30 11 16 1004.7 1004.3 3.4
29/01:30am 22.6 22.5 19.9 85 1.7 SE 20 33 11 18 1005.0 1004.6 2.0
29/01:00am 22.6 22.6 19.8 84 1.8 SE 19 26 10 14 1005.2 1004.8 2.0
29/12:30am 22.6 23.4 19.8 84 1.8 SSE 15 26 8 14 1005.7 1005.2 2.0
29/12:00am 22.7 23.2 20.0 85 1.7 SE 17 28 9 15 1005.9 1005.4 2.0
 
Date/Time
EST
Temp
°C
App
Temp
°C
Dew
Point
Rel
Hum
%
Delta-T
°C
Wind Press
QNH
hPa
Press
MSL
hPa
Rain
since 9 am
mm
Dir
 
Spd
km/h
Gust
km/h
Spd
kts
Gust
kts
28/11:30pm 22.7 23.0 20.4 87 1.5 SSE 19 28 10 15 1006.3 1005.8 1.8
28/11:00pm 22.7 23.0 20.8 89 1.2 SE 20 33 11 18 1006.0 1005.5 1.8
28/10:30pm 22.9 23.0 21.2 90 1.1 SE 22 33 12 18 1005.9 1005.4 1.8
28/10:00pm 22.9 24.1 22.1 95 0.5 SE 19 30 10 16 1006.2 1005.7 1.8
28/09:30pm 23.2 24.3 22.4 95 0.5 SE 20 32 11 17 1006.2 1005.7 1.8
28/09:00pm 23.6 24.4 22.4 93 0.8 SE 22 32 12 17 1005.1 1004.7 1.8
28/08:30pm 23.9 25.7 22.5 92 0.9 SE 17 24 9 13 1005.1 1004.7 1.8
28/08:00pm 23.9 25.7 22.5 92 0.9 SE 17 26 9 14 1004.8 1004.4 1.8
28/07:30pm 24.0 25.3 22.4 91 1.1 SE 19 32 10 17 1004.8 1004.4 1.8
28/07:00pm 24.0 26.1 22.4 91 1.1 SE 15 24 8 13 1004.6 1004.2 1.8
28/06:30pm 23.8 25.7 22.1 90 1.1 SE 15 22 8 12 1004.5 1004.1 1.8
28/06:00pm 24.1 26.2 22.5 91 1.1 SSE 15 22 8 12 1004.2 1003.8 1.8
28/05:30pm 24.0 26.7 22.8 93 0.8 SSE 13 20 7 11 1003.8 1003.4 1.8
28/05:00pm 24.2 26.1 22.8 92 0.9 SSE 17 24 9 13 1003.3 1002.9 1.8
28/04:30pm 23.9 25.8 22.7 93 0.8 SSE 17 22 9 12 1002.8 1002.4 1.8
28/04:00pm 23.9 25.7 22.5 92 0.9 SE 17 26 9 14 1003.0 1002.6 1.0
28/03:30pm 24.1 25.7 22.2 89 1.3 SE 17 26 9 14 1003.1 1002.7 0.6

Other Formats:

Comma delimited format used in spreadsheet applications
http://www.bom.gov.au/fwo/IDQ60801/IDQ60801.94380.axf

JavaScript Object Notation format (JSON) in row-major order
http://www.bom.gov.au/fwo/IDQ60801/IDQ60801.94380.json